sensor_id;sensor_type;location;lat;lon;timestamp;pressure;altitude;pressure_sealevel;temperature;humidity
56038;BME280;41907;47.848;9.000;2023-06-14T00:01:15;95194.47;;;13.02;55.24
56038;BME280;41907;47.848;9.000;2023-06-14T00:03:41;95198.00;;;13.06;56.48
56038;BME280;41907;47.848;9.000;2023-06-14T00:06:06;95199.91;;;13.05;57.01
56038;BME280;41907;47.848;9.000;2023-06-14T00:08:31;95207.06;;;13.01;57.24
56038;BME280;41907;47.848;9.000;2023-06-14T00:10:56;95205.38;;;12.97;58.20
56038;BME280;41907;47.848;9.000;2023-06-14T00:13:22;95204.13;;;12.94;57.76
56038;BME280;41907;47.848;9.000;2023-06-14T00:15:47;95208.63;;;12.90;57.62
56038;BME280;41907;47.848;9.000;2023-06-14T00:18:12;95206.94;;;12.86;57.58
56038;BME280;41907;47.848;9.000;2023-06-14T00:20:38;95198.13;;;12.85;57.46
56038;BME280;41907;47.848;9.000;2023-06-14T00:23:04;95212.19;;;12.82;57.40
56038;BME280;41907;47.848;9.000;2023-06-14T00:25:30;95202.59;;;12.81;58.29
56038;BME280;41907;47.848;9.000;2023-06-14T00:27:55;95205.94;;;12.78;58.66
56038;BME280;41907;47.848;9.000;2023-06-14T00:30:21;95203.03;;;12.71;58.47
56038;BME280;41907;47.848;9.000;2023-06-14T00:32:46;95199.66;;;12.74;59.18
56038;BME280;41907;47.848;9.000;2023-06-14T00:35:11;95203.34;;;12.70;58.20
56038;BME280;41907;47.848;9.000;2023-06-14T00:37:37;95204.78;;;12.67;57.57
56038;BME280;41907;47.848;9.000;2023-06-14T00:40:02;95208.16;;;12.64;58.11
56038;BME280;41907;47.848;9.000;2023-06-14T00:42:29;95203.88;;;12.51;57.40
56038;BME280;41907;47.848;9.000;2023-06-14T00:44:55;95201.41;;;12.46;57.94
56038;BME280;41907;47.848;9.000;2023-06-14T00:47:20;95202.78;;;12.52;58.44
56038;BME280;41907;47.848;9.000;2023-06-14T00:49:46;95203.56;;;12.52;58.39
56038;BME280;41907;47.848;9.000;2023-06-14T00:52:12;95197.31;;;12.48;58.31
56038;BME280;41907;47.848;9.000;2023-06-14T00:54:39;95197.06;;;12.41;58.94
56038;BME280;41907;47.848;9.000;2023-06-14T00:57:05;95194.28;;;12.38;59.62
56038;BME280;41907;47.848;9.000;2023-06-14T00:59:31;95190.34;;;12.23;60.22
56038;BME280;41907;47.848;9.000;2023-06-14T01:01:56;95192.78;;;12.16;59.56
56038;BME280;41907;47.848;9.000;2023-06-14T01:04:21;95193.44;;;12.13;59.60
56038;BME280;41907;47.848;9.000;2023-06-14T01:09:37;95188.88;;;12.13;60.03
56038;BME280;41907;47.848;9.000;2023-06-14T01:12:08;95193.38;;;11.88;61.08
56038;BME280;41907;47.848;9.000;2023-06-14T01:14:36;95190.44;;;11.81;62.21
56038;BME280;41907;47.848;9.000;2023-06-14T01:17:03;95189.84;;;11.76;62.73
56038;BME280;41907;47.848;9.000;2023-06-14T01:19:28;95189.75;;;11.64;63.28
56038;BME280;41907;47.848;9.000;2023-06-14T01:21:57;95195.25;;;11.46;64.49
56038;BME280;41907;47.848;9.000;2023-06-14T01:24:24;95195.44;;;11.41;64.98
56038;BME280;41907;47.848;9.000;2023-06-14T01:26:51;95185.53;;;11.42;65.20
56038;BME280;41907;47.848;9.000;2023-06-14T01:29:20;95189.19;;;11.37;65.78
56038;BME280;41907;47.848;9.000;2023-06-14T01:31:47;95188.09;;;11.38;65.38
56038;BME280;41907;47.848;9.000;2023-06-14T01:34:12;95186.06;;;11.35;65.28
56038;BME280;41907;47.848;9.000;2023-06-14T01:36:37;95184.53;;;11.26;64.71
56038;BME280;41907;47.848;9.000;2023-06-14T01:39:05;95186.31;;;11.22;64.78
56038;BME280;41907;47.848;9.000;2023-06-14T01:41:31;95182.09;;;11.21;64.07
56038;BME280;41907;47.848;9.000;2023-06-14T01:43:56;95179.72;;;11.19;64.11
56038;BME280;41907;47.848;9.000;2023-06-14T01:46:23;95179.88;;;11.23;64.10
56038;BME280;41907;47.848;9.000;2023-06-14T01:48:48;95179.28;;;11.17;64.16
56038;BME280;41907;47.848;9.000;2023-06-14T01:51:14;95177.06;;;11.19;63.94
56038;BME280;41907;47.848;9.000;2023-06-14T01:53:39;95182.09;;;11.21;63.02
56038;BME280;41907;47.848;9.000;2023-06-14T01:56:05;95173.41;;;11.24;63.01
56038;BME280;41907;47.848;9.000;2023-06-14T01:58:31;95167.09;;;11.28;62.82
56038;BME280;41907;47.848;9.000;2023-06-14T02:00:56;95168.78;;;11.33;62.41
56038;BME280;41907;47.848;9.000;2023-06-14T02:03:22;95168.78;;;11.33;61.83
56038;BME280;41907;47.848;9.000;2023-06-14T02:05:49;95164.94;;;11.42;61.64
56038;BME280;41907;47.848;9.000;2023-06-14T02:08:14;95169.50;;;11.42;60.96
56038;BME280;41907;47.848;9.000;2023-06-14T02:10:39;95168.78;;;11.33;61.69
56038;BME280;41907;47.848;9.000;2023-06-14T02:13:05;95168.16;;;11.36;61.75
56038;BME280;41907;47.848;9.000;2023-06-14T02:15:30;95177.72;;;11.37;61.44
56038;BME280;41907;47.848;9.000;2023-06-14T02:17:59;95175.63;;;11.42;60.00
56038;BME280;41907;47.848;9.000;2023-06-14T02:20:25;95168.22;;;11.48;59.97
56038;BME280;41907;47.848;9.000;2023-06-14T02:22:50;95177.47;;;11.50;59.73
56038;BME280;41907;47.848;9.000;2023-06-14T02:25:15;95173.81;;;11.55;59.32
56038;BME280;41907;47.848;9.000;2023-06-14T02:27:40;95167.81;;;11.58;59.44
56038;BME280;41907;47.848;9.000;2023-06-14T02:30:06;95177.41;;;11.59;58.51
56038;BME280;41907;47.848;9.000;2023-06-14T02:32:32;95179.41;;;11.62;58.15
56038;BME280;41907;47.848;9.000;2023-06-14T02:34:59;95185.75;;;11.57;58.33
56038;BME280;41907;47.848;9.000;2023-06-14T02:37:24;95186.84;;;11.56;58.72
56038;BME280;41907;47.848;9.000;2023-06-14T02:39:49;95182.28;;;11.57;58.65
56038;BME280;41907;47.848;9.000;2023-06-14T02:42:14;95183.91;;;11.49;59.22
56038;BME280;41907;47.848;9.000;2023-06-14T02:44:40;95185.34;;;11.47;59.52
56038;BME280;41907;47.848;9.000;2023-06-14T02:47:05;95181.63;;;11.39;59.86
56038;BME280;41907;47.848;9.000;2023-06-14T02:49:30;95184.94;;;11.36;60.22
56038;BME280;41907;47.848;9.000;2023-06-14T02:51:56;95184.50;;;11.34;60.65
56038;BME280;41907;47.848;9.000;2023-06-14T02:54:23;95179.94;;;11.35;60.55
56038;BME280;41907;47.848;9.000;2023-06-14T02:56:48;95176.78;;;11.33;60.62
56038;BME280;41907;47.848;9.000;2023-06-14T02:59:13;95177.78;;;11.28;60.72
56038;BME280;41907;47.848;9.000;2023-06-14T03:01:39;95178.72;;;11.32;60.32
56038;BME280;41907;47.848;9.000;2023-06-14T03:04:06;95180.25;;;11.33;60.44
56038;BME280;41907;47.848;9.000;2023-06-14T03:06:32;95172.69;;;11.35;59.89
56038;BME280;41907;47.848;9.000;2023-06-14T03:08:58;95180.38;;;11.37;60.21
56038;BME280;41907;47.848;9.000;2023-06-14T03:11:29;95178.81;;;11.36;59.70
56038;BME280;41907;47.848;9.000;2023-06-14T03:13:54;95176.31;;;11.39;59.72
56038;BME280;41907;47.848;9.000;2023-06-14T03:16:21;95181.63;;;11.39;59.81
56038;BME280;41907;47.848;9.000;2023-06-14T03:18:50;95188.19;;;11.42;59.74
56038;BME280;41907;47.848;9.000;2023-06-14T03:21:15;95187.09;;;11.43;58.91
56038;BME280;41907;47.848;9.000;2023-06-14T03:23:41;95185.66;;;11.45;59.11
56038;BME280;41907;47.848;9.000;2023-06-14T03:26:06;95183.13;;;11.49;58.66
56038;BME280;41907;47.848;9.000;2023-06-14T03:28:32;95185.28;;;11.55;57.91
56038;BME280;41907;47.848;9.000;2023-06-14T03:30:57;95191.97;;;11.62;57.27
56038;BME280;41907;47.848;9.000;2023-06-14T03:33:22;95185.13;;;11.73;56.96
56038;BME280;41907;47.848;9.000;2023-06-14T03:35:47;95184.44;;;11.84;55.74
56038;BME280;41907;47.848;9.000;2023-06-14T03:38:13;95183.72;;;11.96;55.86
56038;BME280;41907;47.848;9.000;2023-06-14T03:40:38;95191.03;;;11.99;55.87
56038;BME280;41907;47.848;9.000;2023-06-14T03:43:03;95204.22;;;12.04;55.35
56038;BME280;41907;47.848;9.000;2023-06-14T03:45:28;95201.69;;;12.08;55.44
56038;BME280;41907;47.848;9.000;2023-06-14T03:47:53;95198.47;;;12.14;55.40
56038;BME280;41907;47.848;9.000;2023-06-14T03:50:19;95203.59;;;12.19;54.60
56038;BME280;41907;47.848;9.000;2023-06-14T03:52:44;95206.72;;;12.21;55.49
56038;BME280;41907;47.848;9.000;2023-06-14T03:55:10;95211.09;;;12.26;54.92
56038;BME280;41907;47.848;9.000;2023-06-14T03:57:38;95209.31;;;12.30;55.14
56038;BME280;41907;47.848;9.000;2023-06-14T04:00:03;95213.66;;;12.35;55.20
56038;BME280;41907;47.848;9.000;2023-06-14T04:02:30;95212.78;;;12.43;54.80
56038;BME280;41907;47.848;9.000;2023-06-14T04:04:56;95221.50;;;12.52;54.82
56038;BME280;41907;47.848;9.000;2023-06-14T04:07:21;95224.78;;;12.82;53.96
56038;BME280;41907;47.848;9.000;2023-06-14T04:09:47;95223.13;;;12.89;54.94
56038;BME280;41907;47.848;9.000;2023-06-14T04:12:12;95240.84;;;13.06;53.60
56038;BME280;41907;47.848;9.000;2023-06-14T04:14:38;95239.19;;;13.14;55.76
56038;BME280;41907;47.848;9.000;2023-06-14T04:17:04;95244.31;;;13.31;56.27
56038;BME280;41907;47.848;9.000;2023-06-14T04:19:30;95247.38;;;14.65;52.14
56038;BME280;41907;47.848;9.000;2023-06-14T04:21:55;95252.91;;;16.24;46.99
56038;BME280;41907;47.848;9.000;2023-06-14T04:24:20;95251.31;;;17.53;44.82
56038;BME280;41907;47.848;9.000;2023-06-14T04:26:46;95252.00;;;18.33;41.31
56038;BME280;41907;47.848;9.000;2023-06-14T04:29:13;95252.91;;;18.77;40.55
56038;BME280;41907;47.848;9.000;2023-06-14T04:31:45;95256.16;;;19.41;38.73
56038;BME280;41907;47.848;9.000;2023-06-14T04:34:10;95248.44;;;20.05;36.37
56038;BME280;41907;47.848;9.000;2023-06-14T04:36:41;95260.13;;;20.23;36.96
56038;BME280;41907;47.848;9.000;2023-06-14T04:39:17;95258.44;;;20.98;35.58
56038;BME280;41907;47.848;9.000;2023-06-14T04:41:45;95261.59;;;21.43;34.41
56038;BME280;41907;47.848;9.000;2023-06-14T04:44:11;95259.22;;;21.91;32.98
56038;BME280;41907;47.848;9.000;2023-06-14T04:46:37;95265.34;;;22.34;32.46
56038;BME280;41907;47.848;9.000;2023-06-14T04:49:10;95266.31;;;22.79;31.25
56038;BME280;41907;47.848;9.000;2023-06-14T04:51:40;95272.97;;;23.30;30.78
56038;BME280;41907;47.848;9.000;2023-06-14T04:54:06;95269.75;;;23.49;30.17
56038;BME280;41907;47.848;9.000;2023-06-14T04:56:35;95269.63;;;24.04;29.78
56038;BME280;41907;47.848;9.000;2023-06-14T04:59:00;95278.22;;;24.37;28.81
56038;BME280;41907;47.848;9.000;2023-06-14T05:01:25;95278.03;;;24.55;29.08
56038;BME280;41907;47.848;9.000;2023-06-14T05:03:51;95284.72;;;24.50;29.13
56038;BME280;41907;47.848;9.000;2023-06-14T05:06:17;95277.31;;;24.81;29.28
56038;BME280;41907;47.848;9.000;2023-06-14T05:08:42;95279.94;;;24.88;29.07
56038;BME280;41907;47.848;9.000;2023-06-14T05:11:07;95274.94;;;25.13;28.20
56038;BME280;41907;47.848;9.000;2023-06-14T05:13:32;95291.19;;;25.20;28.16
56038;BME280;41907;47.848;9.000;2023-06-14T05:15:59;95294.38;;;25.42;29.72
56038;BME280;41907;47.848;9.000;2023-06-14T05:18:25;95281.75;;;25.52;28.95
56038;BME280;41907;47.848;9.000;2023-06-14T05:20:50;95289.03;;;25.35;28.63
56038;BME280;41907;47.848;9.000;2023-06-14T05:23:15;95283.88;;;23.78;29.73
56038;BME280;41907;47.848;9.000;2023-06-14T05:25:44;95284.44;;;23.00;34.22
56038;BME280;41907;47.848;9.000;2023-06-14T05:28:10;95283.50;;;22.48;36.47
56038;BME280;41907;47.848;9.000;2023-06-14T05:30:36;95281.31;;;22.04;33.67
56038;BME280;41907;47.848;9.000;2023-06-14T05:33:02;95285.63;;;21.30;35.69
56038;BME280;41907;47.848;9.000;2023-06-14T05:35:27;95290.66;;;21.25;34.27
56038;BME280;41907;47.848;9.000;2023-06-14T05:37:53;95287.94;;;21.17;33.86
56038;BME280;41907;47.848;9.000;2023-06-14T05:40:19;95293.25;;;20.86;34.23
56038;BME280;41907;47.848;9.000;2023-06-14T05:42:44;95297.19;;;21.09;35.12
56038;BME280;41907;47.848;9.000;2023-06-14T05:45:09;95295.72;;;21.37;34.68
56038;BME280;41907;47.848;9.000;2023-06-14T05:47:35;95297.28;;;21.41;34.14
56038;BME280;41907;47.848;9.000;2023-06-14T05:50:00;95296.50;;;21.59;33.65
56038;BME280;41907;47.848;9.000;2023-06-14T05:52:25;95294.56;;;21.59;33.31
56038;BME280;41907;47.848;9.000;2023-06-14T05:54:51;95301.13;;;21.26;34.92
56038;BME280;41907;47.848;9.000;2023-06-14T05:57:16;95297.56;;;21.01;34.30
56038;BME280;41907;47.848;9.000;2023-06-14T05:59:41;95301.13;;;21.30;34.66
56038;BME280;41907;47.848;9.000;2023-06-14T06:02:07;95298.44;;;21.69;33.54
56038;BME280;41907;47.848;9.000;2023-06-14T06:04:32;95302.66;;;22.02;33.87
56038;BME280;41907;47.848;9.000;2023-06-14T06:06:57;95304.50;;;22.44;34.43
56038;BME280;41907;47.848;9.000;2023-06-14T06:09:22;95304.16;;;22.20;33.19
56038;BME280;41907;47.848;9.000;2023-06-14T06:11:48;95305.34;;;22.23;32.82
56038;BME280;41907;47.848;9.000;2023-06-14T06:14:13;95308.44;;;22.25;33.88
56038;BME280;41907;47.848;9.000;2023-06-14T06:16:38;95312.69;;;22.30;33.49
56038;BME280;41907;47.848;9.000;2023-06-14T06:19:03;95314.53;;;22.64;33.10
56038;BME280;41907;47.848;9.000;2023-06-14T06:21:29;95306.66;;;22.84;32.19
56038;BME280;41907;47.848;9.000;2023-06-14T06:23:54;95317.28;;;22.50;33.11
56038;BME280;41907;47.848;9.000;2023-06-14T06:26:21;95315.34;;;22.51;32.91
56038;BME280;41907;47.848;9.000;2023-06-14T06:28:46;95313.50;;;22.09;34.31
56038;BME280;41907;47.848;9.000;2023-06-14T06:31:11;95311.47;;;22.48;34.04
56038;BME280;41907;47.848;9.000;2023-06-14T06:33:37;95309.81;;;22.79;34.13
56038;BME280;41907;47.848;9.000;2023-06-14T06:36:04;95319.44;;;22.94;32.78
56038;BME280;41907;47.848;9.000;2023-06-14T06:38:29;95316.59;;;23.16;32.22
56038;BME280;41907;47.848;9.000;2023-06-14T06:40:55;95318.81;;;23.35;33.65
56038;BME280;41907;47.848;9.000;2023-06-14T06:43:21;95314.81;;;22.88;33.58
56038;BME280;41907;47.848;9.000;2023-06-14T06:45:46;95316.91;;;22.52;34.11
56038;BME280;41907;47.848;9.000;2023-06-14T06:48:11;95314.03;;;22.84;33.06
56038;BME280;41907;47.848;9.000;2023-06-14T06:50:37;95316.72;;;22.94;33.21
56038;BME280;41907;47.848;9.000;2023-06-14T06:53:02;95322.41;;;23.21;32.74
56038;BME280;41907;47.848;9.000;2023-06-14T06:55:27;95329.81;;;23.14;32.84
56038;BME280;41907;47.848;9.000;2023-06-14T06:57:53;95330.97;;;23.16;33.25
56038;BME280;41907;47.848;9.000;2023-06-14T07:00:19;95320.88;;;23.13;32.85
56038;BME280;41907;47.848;9.000;2023-06-14T07:02:44;95330.47;;;23.32;33.66
56038;BME280;41907;47.848;9.000;2023-06-14T07:05:09;95321.81;;;23.51;32.26
56038;BME280;41907;47.848;9.000;2023-06-14T07:07:35;95335.06;;;23.42;32.48
56038;BME280;41907;47.848;9.000;2023-06-14T07:10:00;95333.41;;;23.62;31.58
56038;BME280;41907;47.848;9.000;2023-06-14T07:12:26;95334.31;;;23.42;31.66
56038;BME280;41907;47.848;9.000;2023-06-14T07:14:52;95342.53;;;23.34;32.29
56038;BME280;41907;47.848;9.000;2023-06-14T07:17:17;95339.81;;;23.34;32.62
56038;BME280;41907;47.848;9.000;2023-06-14T07:19:42;95331.06;;;23.68;33.83
56038;BME280;41907;47.848;9.000;2023-06-14T07:22:07;95341.56;;;23.66;32.55
56038;BME280;41907;47.848;9.000;2023-06-14T07:24:33;95336.91;;;23.59;32.49
56038;BME280;41907;47.848;9.000;2023-06-14T07:27:00;95338.72;;;23.80;32.42
56038;BME280;41907;47.848;9.000;2023-06-14T07:29:25;95345.06;;;24.07;32.30
56038;BME280;41907;47.848;9.000;2023-06-14T07:31:51;95342.53;;;24.34;31.05
56038;BME280;41907;47.848;9.000;2023-06-14T07:34:16;95339.63;;;24.52;31.49
56038;BME280;41907;47.848;9.000;2023-06-14T07:36:42;95337.66;;;24.53;31.90
56038;BME280;41907;47.848;9.000;2023-06-14T07:39:09;95343.81;;;24.57;30.66
56038;BME280;41907;47.848;9.000;2023-06-14T07:41:35;95344.75;;;25.11;31.33
56038;BME280;41907;47.848;9.000;2023-06-14T07:44:00;95348.91;;;24.89;29.97
56038;BME280;41907;47.848;9.000;2023-06-14T07:46:25;95350.31;;;24.70;30.12
56038;BME280;41907;47.848;9.000;2023-06-14T07:48:50;95350.19;;;25.11;30.47
56038;BME280;41907;47.848;9.000;2023-06-14T07:51:16;95355.94;;;24.86;29.65
56038;BME280;41907;47.848;9.000;2023-06-14T07:53:41;95347.41;;;24.84;30.35
56038;BME280;41907;47.848;9.000;2023-06-14T07:56:07;95351.28;;;24.87;30.55
56038;BME280;41907;47.848;9.000;2023-06-14T07:58:32;95351.28;;;24.53;30.47
56038;BME280;41907;47.848;9.000;2023-06-14T08:00:58;95348.34;;;25.04;30.64
56038;BME280;41907;47.848;9.000;2023-06-14T08:03:23;95348.38;;;25.01;29.39
56038;BME280;41907;47.848;9.000;2023-06-14T08:05:49;95347.28;;;24.95;30.24
56038;BME280;41907;47.848;9.000;2023-06-14T08:08:14;95351.41;;;25.10;27.90
56038;BME280;41907;47.848;9.000;2023-06-14T08:10:39;95349.94;;;25.02;28.79
56038;BME280;41907;47.848;9.000;2023-06-14T08:13:05;95348.41;;;24.63;29.02
56038;BME280;41907;47.848;9.000;2023-06-14T08:15:30;95355.22;;;24.82;28.13
56038;BME280;41907;47.848;9.000;2023-06-14T08:17:55;95356.22;;;24.99;28.89
56038;BME280;41907;47.848;9.000;2023-06-14T08:20:21;95353.25;;;25.16;28.00
56038;BME280;41907;47.848;9.000;2023-06-14T08:22:46;95350.91;;;25.45;28.46
56038;BME280;41907;47.848;9.000;2023-06-14T08:25:12;95345.84;;;25.17;28.16
56038;BME280;41907;47.848;9.000;2023-06-14T08:27:37;95360.16;;;25.25;26.59
56038;BME280;41907;47.848;9.000;2023-06-14T08:30:02;95349.75;;;25.16;27.25
56038;BME280;41907;47.848;9.000;2023-06-14T08:32:28;95353.63;;;25.18;26.59
56038;BME280;41907;47.848;9.000;2023-06-14T08:34:53;95350.84;;;25.22;26.66
56038;BME280;41907;47.848;9.000;2023-06-14T08:37:18;95351.56;;;25.26;27.28
56038;BME280;41907;47.848;9.000;2023-06-14T08:39:44;95361.41;;;25.47;27.51
56038;BME280;41907;47.848;9.000;2023-06-14T08:42:10;95363.97;;;25.57;26.74
56038;BME280;41907;47.848;9.000;2023-06-14T08:44:35;95356.63;;;25.81;25.81
56038;BME280;41907;47.848;9.000;2023-06-14T08:47:01;95365.19;;;25.83;26.19
56038;BME280;41907;47.848;9.000;2023-06-14T08:49:28;95366.81;;;25.50;26.22
56038;BME280;41907;47.848;9.000;2023-06-14T08:51:58;95368.97;;;25.66;26.36
56038;BME280;41907;47.848;9.000;2023-06-14T08:54:23;95370.34;;;26.01;26.04
56038;BME280;41907;47.848;9.000;2023-06-14T08:56:52;95361.47;;;26.17;26.82
56038;BME280;41907;47.848;9.000;2023-06-14T08:59:18;95372.22;;;25.27;27.20
56038;BME280;41907;47.848;9.000;2023-06-14T09:01:43;95369.75;;;25.67;26.00
56038;BME280;41907;47.848;9.000;2023-06-14T09:04:10;95368.88;;;25.70;26.05
56038;BME280;41907;47.848;9.000;2023-06-14T09:06:35;95372.06;;;25.38;25.84
56038;BME280;41907;47.848;9.000;2023-06-14T09:09:01;95374.22;;;25.50;27.58
56038;BME280;41907;47.848;9.000;2023-06-14T09:11:29;95379.13;;;25.66;26.64
56038;BME280;41907;47.848;9.000;2023-06-14T09:13:55;95382.91;;;25.72;26.19
56038;BME280;41907;47.848;9.000;2023-06-14T09:16:20;95379.25;;;25.25;25.80
56038;BME280;41907;47.848;9.000;2023-06-14T09:18:46;95379.00;;;24.81;26.50
56038;BME280;41907;47.848;9.000;2023-06-14T09:21:15;95373.91;;;24.50;26.20
56038;BME280;41907;47.848;9.000;2023-06-14T09:23:44;95368.56;;;24.73;27.18
56038;BME280;41907;47.848;9.000;2023-06-14T09:26:11;95368.13;;;24.44;27.08
56038;BME280;41907;47.848;9.000;2023-06-14T09:28:41;95367.03;;;24.72;27.92
56038;BME280;41907;47.848;9.000;2023-06-14T09:31:06;95380.91;;;25.18;27.02
56038;BME280;41907;47.848;9.000;2023-06-14T09:33:33;95370.50;;;24.76;26.54
56038;BME280;41907;47.848;9.000;2023-06-14T09:35:59;95385.13;;;24.55;27.19
56038;BME280;41907;47.848;9.000;2023-06-14T09:38:24;95381.00;;;25.11;27.17
56038;BME280;41907;47.848;9.000;2023-06-14T09:40:49;95373.72;;;24.30;27.12
56038;BME280;41907;47.848;9.000;2023-06-14T09:43:15;95380.06;;;24.13;27.70
56038;BME280;41907;47.848;9.000;2023-06-14T09:45:40;95373.97;;;24.42;28.16
56038;BME280;41907;47.848;9.000;2023-06-14T09:48:06;95383.63;;;24.84;26.40
56038;BME280;41907;47.848;9.000;2023-06-14T09:50:32;95381.44;;;25.37;26.27
56038;BME280;41907;47.848;9.000;2023-06-14T09:52:59;95379.38;;;25.44;25.65
56038;BME280;41907;47.848;9.000;2023-06-14T09:55:27;95382.25;;;25.64;26.32
56038;BME280;41907;47.848;9.000;2023-06-14T09:57:55;95373.31;;;25.60;26.45
56038;BME280;41907;47.848;9.000;2023-06-14T10:00:21;95372.84;;;25.92;26.51
56038;BME280;41907;47.848;9.000;2023-06-14T10:02:49;95375.44;;;25.99;26.80
56038;BME280;41907;47.848;9.000;2023-06-14T10:05:18;95369.81;;;26.10;26.67
56038;BME280;41907;47.848;9.000;2023-06-14T10:07:52;95373.06;;;26.24;26.38
56038;BME280;41907;47.848;9.000;2023-06-14T10:10:18;95366.84;;;26.47;25.30
56038;BME280;41907;47.848;9.000;2023-06-14T10:12:43;95379.75;;;26.66;25.60
56038;BME280;41907;47.848;9.000;2023-06-14T10:15:09;95372.94;;;26.55;25.71
56038;BME280;41907;47.848;9.000;2023-06-14T10:17:55;95367.06;;;26.10;26.00
56038;BME280;41907;47.848;9.000;2023-06-14T10:20:25;95394.31;;;25.36;26.60
56038;BME280;41907;47.848;9.000;2023-06-14T10:22:57;95379.59;;;25.57;26.48
56038;BME280;41907;47.848;9.000;2023-06-14T10:25:28;95386.38;;;25.76;26.11
56038;BME280;41907;47.848;9.000;2023-06-14T10:28:02;95372.81;;;26.15;28.34
56038;BME280;41907;47.848;9.000;2023-06-14T10:30:27;95373.66;;;26.59;26.12
56038;BME280;41907;47.848;9.000;2023-06-14T10:33:08;95368.81;;;26.86;24.99
56038;BME280;41907;47.848;9.000;2023-06-14T10:35:34;95362.66;;;27.02;24.81
56038;BME280;41907;47.848;9.000;2023-06-14T10:38:06;95359.22;;;27.18;24.98
56038;BME280;41907;47.848;9.000;2023-06-14T10:40:32;95369.59;;;26.67;26.48
56038;BME280;41907;47.848;9.000;2023-06-14T10:42:58;95369.84;;;26.73;26.33
56038;BME280;41907;47.848;9.000;2023-06-14T10:45:23;95357.66;;;26.77;25.45
56038;BME280;41907;47.848;9.000;2023-06-14T10:47:48;95365.56;;;26.72;24.58
56038;BME280;41907;47.848;9.000;2023-06-14T10:50:17;95358.69;;;26.20;26.04
56038;BME280;41907;47.848;9.000;2023-06-14T10:52:44;95359.34;;;26.51;27.05
56038;BME280;41907;47.848;9.000;2023-06-14T10:57:40;95357.50;;;26.64;25.92
56038;BME280;41907;47.848;9.000;2023-06-14T11:00:06;95353.19;;;26.87;25.53
56038;BME280;41907;47.848;9.000;2023-06-14T11:02:52;95354.72;;;26.02;26.44
56038;BME280;41907;47.848;9.000;2023-06-14T11:05:26;95343.47;;;26.43;26.61
56038;BME280;41907;47.848;9.000;2023-06-14T11:08:04;95348.81;;;26.50;25.72
56038;BME280;41907;47.848;9.000;2023-06-14T11:10:37;95356.16;;;25.60;26.69
56038;BME280;41907;47.848;9.000;2023-06-14T11:13:03;95362.88;;;24.94;27.42
56038;BME280;41907;47.848;9.000;2023-06-14T11:15:32;95357.78;;;25.53;27.20
56038;BME280;41907;47.848;9.000;2023-06-14T11:18:00;95355.22;;;25.70;26.52
56038;BME280;41907;47.848;9.000;2023-06-14T11:20:26;95364.75;;;25.58;27.82
56038;BME280;41907;47.848;9.000;2023-06-14T11:22:52;95353.09;;;25.81;27.58
56038;BME280;41907;47.848;9.000;2023-06-14T11:25:18;95352.38;;;26.23;25.79
56038;BME280;41907;47.848;9.000;2023-06-14T11:27:43;95357.16;;;26.19;25.60
56038;BME280;41907;47.848;9.000;2023-06-14T11:30:09;95356.31;;;26.22;24.60
56038;BME280;41907;47.848;9.000;2023-06-14T11:32:37;95346.06;;;25.83;26.35
56038;BME280;41907;47.848;9.000;2023-06-14T11:35:03;95344.84;;;26.08;26.87
56038;BME280;41907;47.848;9.000;2023-06-14T11:37:30;95342.13;;;26.31;25.03
56038;BME280;41907;47.848;9.000;2023-06-14T11:40:01;95340.47;;;26.14;25.31
56038;BME280;41907;47.848;9.000;2023-06-14T11:42:28;95337.44;;;25.31;27.36
56038;BME280;41907;47.848;9.000;2023-06-14T11:44:55;95325.50;;;25.75;27.74
56038;BME280;41907;47.848;9.000;2023-06-14T11:47:20;95334.09;;;26.20;27.02
56038;BME280;41907;47.848;9.000;2023-06-14T11:49:46;95338.00;;;26.43;26.98
56038;BME280;41907;47.848;9.000;2023-06-14T11:52:11;95338.59;;;26.93;24.87
56038;BME280;41907;47.848;9.000;2023-06-14T11:54:37;95337.16;;;27.25;25.12
56038;BME280;41907;47.848;9.000;2023-06-14T11:57:02;95328.41;;;26.74;25.73
56038;BME280;41907;47.848;9.000;2023-06-14T11:59:28;95330.00;;;26.72;26.30
56038;BME280;41907;47.848;9.000;2023-06-14T12:01:53;95344.66;;;26.81;24.38
56038;BME280;41907;47.848;9.000;2023-06-14T12:04:26;95328.19;;;26.65;26.05
56038;BME280;41907;47.848;9.000;2023-06-14T12:06:51;95327.78;;;27.06;27.70
56038;BME280;41907;47.848;9.000;2023-06-14T12:09:18;95324.19;;;26.89;25.92
56038;BME280;41907;47.848;9.000;2023-06-14T12:11:44;95323.06;;;26.27;25.58
56038;BME280;41907;47.848;9.000;2023-06-14T12:14:10;95324.97;;;26.30;26.09
56038;BME280;41907;47.848;9.000;2023-06-14T12:16:37;95325.22;;;26.36;26.96
56038;BME280;41907;47.848;9.000;2023-06-14T12:19:15;95317.41;;;26.58;25.76
56038;BME280;41907;47.848;9.000;2023-06-14T12:21:41;95320.34;;;26.47;26.60
56038;BME280;41907;47.848;9.000;2023-06-14T12:24:07;95313.13;;;26.57;26.29
56038;BME280;41907;47.848;9.000;2023-06-14T12:26:32;95316.25;;;26.36;26.82
56038;BME280;41907;47.848;9.000;2023-06-14T12:28:57;95312.91;;;26.24;25.82
56038;BME280;41907;47.848;9.000;2023-06-14T12:31:23;95303.34;;;26.36;25.31
56038;BME280;41907;47.848;9.000;2023-06-14T12:33:49;95314.38;;;26.09;25.70
56038;BME280;41907;47.848;9.000;2023-06-14T12:36:14;95308.75;;;25.73;26.84
56038;BME280;41907;47.848;9.000;2023-06-14T12:38:40;95314.28;;;25.93;27.02
56038;BME280;41907;47.848;9.000;2023-06-14T12:41:06;95310.59;;;26.03;26.82
56038;BME280;41907;47.848;9.000;2023-06-14T12:43:32;95313.34;;;26.23;27.48
56038;BME280;41907;47.848;9.000;2023-06-14T12:45:57;95309.97;;;26.39;27.53
56038;BME280;41907;47.848;9.000;2023-06-14T12:48:22;95308.53;;;26.07;27.12
56038;BME280;41907;47.848;9.000;2023-06-14T12:50:48;95306.91;;;25.90;28.57
56038;BME280;41907;47.848;9.000;2023-06-14T12:53:13;95313.41;;;25.96;27.18
56038;BME280;41907;47.848;9.000;2023-06-14T12:55:39;95310.78;;;25.92;26.67
56038;BME280;41907;47.848;9.000;2023-06-14T12:58:04;95320.13;;;26.15;27.42
56038;BME280;41907;47.848;9.000;2023-06-14T13:00:29;95317.97;;;26.26;27.54